Burlington, NC

07:20 PM EDT die 03o August, anno 2015 (GMT -0400)
Central Alamance County | | Change Station
CLOSE
Current Station
Personal Weather Stations
Location: Graham, NC
Elevation: 564 ft
Nearby Weather Stations

Elev 564 ft 36.04 °N, 79.41 °W | Updated 24 seconds ago

Clear
Serena
88.3 °F
Feels Like 89 °F
N
0.0
Ventus Variabilis Ventus from Aquilo

Hodie
High -- | Low -- °F
--% Chance of Precip.
Yesterday
High -- | Low -- °F
Precip. -- in
6:26 AM 8:21 PM
Waning Gibbous, 83% visible
Pressio 29.87 in
Visibilitas 10.0 milia passuum
Clouds Serena
Index Caloris 89 °F
Frigus in quo Ros apparet 62 °F
Umor 41%
Rainfall 0.00 in
Snow Depth Not available.
UV 1 out of 12
Pollen 5.50 out of 12
Air Quality Not available.
Flu Activity Not available.
METAR KBUY 032254Z AUTO 19004KT 10SM CLR 33/18 A2989 RMK AO2 SLP115 T03280183

More Conditions Fewer Conditions

Pressio 29.87 in
Visibilitas 10.0 milia passuum
Clouds Serena
Index Caloris 89 °F
Frigus in quo Ros apparet 62 °F
Umor 41%
Rainfall 0.00 in
Snow Depth Not available.
UV 1 out of 12
Pollen 5.50 out of 12
Air Quality Not available.
Flu Activity Not available.
METAR KBUY 032254Z AUTO 19004KT 10SM CLR 33/18 A2989 RMK AO2 SLP115 T03280183

More Conditions Fewer Conditions

10-Day Weather Forecast

×

Almanac

Astronomy

Aug. 03, 2015 Rise Set
Actual Time
Civil Twilight
Nautical Twilight
Astronomical Twilight
Moon
Length Of Visible Light
Length of Day
Tomorrow will be .
, % of the Moon is Illuminated

Today's Extremes

State Highs State Lows

Community

WunderPhotos

Upload Photos

1,843,786 photos uploaded!

WunderBlogs® & News

Nearby

Air Quality

  Air Quality AQ Index Pollutant
Not available.

Snow Depth

Station Depth Elevation

Earthquake Activity

City Distance Mag. Time & Date
Minimum magnitude displayed is 2.5.

Coastal Water Temperatures

Locus Calor

Stations

Nearby Weather Stations

Station Location Temp Frigus Venti Frigus in quo Ros apparet Umor Ventus Precip. Elev Renovata Type